Time;durP1;ratioP1;P1;durP2;ratioP2;P2;SDS_P1;SDS_P2;PMS_P1;PMS_P2;Temp;Humidity;BMP_temperature;BMP_pressure;BME280_temperature;BME280_humidity;BME280_pressure;Samples;Min_cycle;Max_cycle;Signal;HPM_P1;HPM_P2
2023/03/25 00:04:38;;;;;;;12.82;3.35;;;;;;;9.62;100.00;100053.19;10394813;28;20038;-80
2023/03/25 00:09:38;;;;;;;12.70;4.13;;;;;;;9.50;100.00;100055.72;10378557;28;20029;-79
2023/03/25 00:14:39;;;;;;;6.43;3.90;;;;;;;9.50;100.00;100044.91;10378233;28;20045;-79
2023/03/25 00:19:40;;;;;;;6.85;3.15;;;;;;;9.50;100.00;100041.38;10379485;28;20103;-79
2023/03/25 00:24:40;;;;;;;19.02;5.70;;;;;;;9.39;100.00;100037.44;10377975;28;20034;-79
2023/03/25 00:29:41;;;;;;;12.93;3.88;;;;;;;9.39;100.00;100042.03;10379080;28;20164;-79
2023/03/25 00:34:46;;;;;;;6.38;3.97;;;;;;;9.41;100.00;100038.09;10377904;28;20066;-79
2023/03/25 00:39:46;;;;;;;19.77;5.65;;;;;;;9.42;100.00;100034.34;10394878;28;20033;-78
2023/03/25 00:44:47;;;;;;;10.48;4.10;;;;;;;9.43;100.00;100033.28;10393747;28;20026;-79
2023/03/25 00:49:54;;;;;;;13.57;5.30;;;;;;;9.47;100.00;100047.19;10379491;28;20038;-78
2023/03/25 00:54:55;;;;;;;20.38;5.88;;;;;;;9.44;100.00;100024.13;10377526;28;20069;-79
2023/03/25 00:59:56;;;;;;;26.95;6.20;;;;;;;9.44;100.00;100032.22;10376577;28;20045;-78
2023/03/25 01:04:58;;;;;;;24.00;5.70;;;;;;;9.30;100.00;100022.50;10376915;28;20068;-79
2023/03/25 01:09:59;;;;;;;14.82;4.50;;;;;;;9.12;100.00;100042.03;10376176;28;20038;-80
2023/03/25 01:15:00;;;;;;;9.30;4.13;;;;;;;9.01;100.00;100034.59;10392031;28;20046;-80
2023/03/25 01:20:00;;;;;;;16.60;5.63;;;;;;;8.98;100.00;100033.13;10391665;28;20116;-79
2023/03/25 01:25:02;;;;;;;26.63;4.97;;;;;;;9.00;100.00;100038.34;10375086;28;20053;-79
2023/03/25 01:30:03;;;;;;;20.15;4.97;;;;;;;9.02;100.00;100030.84;10375155;28;20038;-79
2023/03/25 01:35:05;;;;;;;15.40;5.75;;;;;;;9.10;100.00;100027.13;10390615;28;20433;-80
2023/03/25 01:40:08;;;;;;;9.55;3.63;;;;;;;9.11;100.00;100017.97;10376813;28;20034;-79
2023/03/25 01:45:20;;;;;;;16.27;4.32;;;;;;;9.08;100.00;100011.94;10374280;28;20041;-79
2023/03/25 01:50:22;;;;;;;25.73;4.85;;;;;;;9.09;100.00;100023.56;10391751;28;20038;-79
2023/03/25 01:55:26;;;;;;;17.30;5.05;;;;;;;9.11;100.00;100024.19;10377172;28;20046;-78
2023/03/25 02:00:26;;;;;;;10.68;3.50;;;;;;;9.09;100.00;100012.75;10390505;28;20445;-80
2023/03/25 02:05:29;;;;;;;18.65;5.55;;;;;;;9.18;100.00;100014.19;10373555;28;20034;-80
2023/03/25 02:10:30;;;;;;;24.20;6.13;;;;;;;9.22;100.00;100014.59;10374382;28;20038;-79
2023/03/25 02:15:39;;;;;;;18.17;6.57;;;;;;;9.25;100.00;100014.19;10374353;28;20437;-78
2023/03/25 02:20:45;;;;;;;26.63;7.00;;;;;;;9.19;100.00;100005.06;10389988;28;20050;-77
2023/03/25 02:25:45;;;;;;;17.73;6.70;;;;;;;9.19;100.00;100007.78;10374592;28;20038;-79
2023/03/25 02:30:55;;;;;;;22.83;5.57;;;;;;;9.29;100.00;100001.94;10374606;28;20409;-79
2023/03/25 02:36:24;;;;;;;35.10;6.25;;;;;;;9.24;100.00;99997.16;10372983;28;20432;-79
2023/03/25 02:41:44;;;;;;;23.30;5.53;;;;;;;9.28;100.00;99984.91;10374552;28;20061;-80
2023/03/25 02:46:48;;;;;;;19.83;6.72;;;;;;;9.28;100.00;99981.34;10374104;28;20041;-79
2023/03/25 02:52:01;;;;;;;25.65;5.43;;;;;;;9.30;100.00;99990.09;10388977;28;20025;-78
2023/03/25 02:57:02;;;;;;;33.90;8.07;;;;;;;9.35;100.00;99993.00;10387200;28;20025;-79
2023/03/25 03:02:06;;;;;;;29.40;7.95;;;;;;;9.38;100.00;99975.50;10356296;28;20026;-79
2023/03/25 03:07:09;;;;;;;18.08;5.43;;;;;;;9.32;100.00;99966.41;10373263;28;20094;-78
2023/03/25 03:12:40;;;;;;;30.27;7.47;;;;;;;9.04;100.00;99959.38;10372771;28;20033;-76
2023/03/25 03:17:42;;;;;;;20.83;5.82;;;;;;;8.60;100.00;99965.44;10373298;28;20061;-75
2023/03/25 03:22:52;;;;;;;36.97;8.38;;;;;;;8.41;100.00;99969.78;10371498;28;20049;-76
2023/03/25 03:28:15;;;;;;;30.90;8.25;;;;;;;8.38;100.00;99968.31;10373828;28;20026;-75
2023/03/25 03:33:33;;;;;;;28.92;7.90;;;;;;;8.32;100.00;99963.72;10372314;28;20030;-75
2023/03/25 03:38:46;;;;;;;41.35;7.97;;;;;;;8.33;100.00;99978.88;10373477;28;20542;-77
2023/03/25 03:43:49;;;;;;;25.48;8.75;;;;;;;8.33;100.00;99975.38;10372554;28;20037;-75
2023/03/25 03:48:57;;;;;;;27.52;7.47;;;;;;;8.20;100.00;99965.38;10372239;28;20041;-75
2023/03/25 03:53:59;;;;;;;24.25;6.03;;;;;;;8.17;100.00;99973.88;10371611;28;20504;-75
2023/03/25 03:59:00;;;;;;;24.48;9.00;;;;;;;8.18;100.00;99983.63;10374964;28;20393;-77
2023/03/25 04:04:05;;;;;;;20.67;4.78;;;;;;;8.16;100.00;99972.22;10379114;28;20034;-76
2023/03/25 04:09:17;;;;;;;20.77;6.75;;;;;;;8.19;100.00;99973.66;10396759;28;20136;-77
2023/03/25 04:14:17;;;;;;;25.38;6.82;;;;;;;8.16;100.00;99983.00;10394479;28;20495;-77
2023/03/25 04:19:18;;;;;;;28.52;7.05;;;;;;;8.18;100.00;99993.59;10378325;28;20051;-77
2023/03/25 04:24:18;;;;;;;31.27;7.28;;;;;;;8.11;100.00;99985.50;10378704;28;20346;-78
2023/03/25 04:29:19;;;;;;;32.60;7.88;;;;;;;8.08;100.00;99997.50;10377963;28;20053;-79
2023/03/25 04:34:19;;;;;;;31.33;5.55;;;;;;;8.11;100.00;99990.88;10394904;28;20034;-79
2023/03/25 04:39:24;;;;;;;28.35;7.10;;;;;;;8.03;100.00;99999.16;10379808;28;20095;-79
2023/03/25 04:44:24;;;;;;;41.50;7.80;;;;;;;8.04;100.00;100011.59;10380384;28;20102;-79
2023/03/25 04:49:25;;;;;;;39.88;8.32;;;;;;;7.95;100.00;99999.34;10377404;28;20032;-78
2023/03/25 04:54:25;;;;;;;29.50;8.80;;;;;;;7.90;100.00;99998.06;10377907;28;20030;-79
2023/03/25 04:59:26;;;;;;;24.25;7.40;;;;;;;7.85;100.00;100002.41;10393137;28;20069;-78
2023/03/25 05:04:26;;;;;;;22.02;6.97;;;;;;;7.80;100.00;100004.88;10378684;28;20072;-80
2023/03/25 05:09:28;;;;;;;24.98;7.60;;;;;;;7.77;100.00;100005.28;10376648;28;20584;-80
2023/03/25 05:14:29;;;;;;;35.33;8.32;;;;;;;7.81;100.00;100010.06;10376545;28;20381;-79
2023/03/25 05:19:30;;;;;;;22.70;8.63;;;;;;;7.82;100.00;100008.22;10391982;28;20054;-79
2023/03/25 05:24:30;;;;;;;25.45;6.85;;;;;;;7.88;100.00;100013.63;10377385;28;20124;-80
2023/03/25 05:29:32;;;;;;;28.80;8.10;;;;;;;7.94;100.00;100020.06;10392400;28;20133;-80
2023/03/25 05:34:33;;;;;;;33.08;7.28;;;;;;;8.01;100.00;100023.63;10393454;28;20061;-81
2023/03/25 05:39:33;;;;;;;29.33;7.25;;;;;;;8.02;100.00;100019.88;10375887;28;20042;-80
2023/03/25 05:44:34;;;;;;;32.78;7.55;;;;;;;8.10;100.00;100010.78;10376172;28;20076;-80
2023/03/25 05:49:34;;;;;;;17.15;6.13;;;;;;;8.16;100.00;100039.63;10377363;28;20045;-81
2023/03/25 05:54:40;;;;;;;29.05;7.10;;;;;;;8.20;100.00;100027.41;10377218;28;20033;-82
2023/03/25 05:59:41;;;;;;;17.35;5.05;;;;;;;8.15;100.00;100040.66;10377463;28;20026;-82
2023/03/25 06:04:42;;;;;;;23.17;7.05;;;;;;;8.20;100.00;100042.75;10376169;28;20030;-79
2023/03/25 06:09:45;;;;;;;17.48;7.32;;;;;;;8.15;100.00;100044.19;10375812;28;20339;-82
2023/03/25 06:14:46;;;;;;;30.15;6.82;;;;;;;8.23;100.00;100064.78;10374412;28;20065;-82
2023/03/25 06:19:48;;;;;;;26.90;7.25;;;;;;;8.25;100.00;100046.50;10391956;28;20050;-81
2023/03/25 06:24:48;;;;;;;13.38;6.20;;;;;;;8.35;100.00;100067.69;10381706;28;20065;-81
2023/03/25 06:29:49;;;;;;;19.65;5.28;;;;;;;8.33;100.00;100062.50;10374926;28;20034;-80
2023/03/25 06:34:49;;;;;;;25.92;5.05;;;;;;;8.36;100.00;100059.41;10374603;28;20041;-80
2023/03/25 06:39:55;;;;;;;27.60;8.57;;;;;;;8.40;100.00;100056.34;10374531;28;20062;-80
2023/03/25 06:44:55;;;;;;;36.45;7.03;;;;;;;8.55;100.00;100062.38;10374547;28;20133;-80
2023/03/25 06:49:56;;;;;;;17.60;5.90;;;;;;;8.67;100.00;100062.59;10373839;28;20030;-79
2023/03/25 06:54:56;;;;;;;25.30;7.32;;;;;;;8.81;100.00;100069.69;10390199;28;20405;-80
2023/03/25 06:59:56;;;;;;;22.35;7.43;;;;;;;8.89;100.00;100084.84;10380905;28;20176;-80
2023/03/25 07:04:57;;;;;;;27.98;6.80;;;;;;;8.92;100.00;100060.97;10382542;28;20133;-80
2023/03/25 07:09:57;;;;;;;26.33;7.85;;;;;;;8.96;100.00;100086.50;10390531;28;20369;-80
2023/03/25 07:14:58;;;;;;;18.25;8.65;;;;;;;9.09;100.00;100074.88;10374215;28;20060;-80
2023/03/25 07:19:58;;;;;;;23.63;6.53;;;;;;;9.15;100.00;100079.44;10373873;28;20089;-80
2023/03/25 07:24:59;;;;;;;20.05;6.97;;;;;;;9.23;100.00;100090.06;10372195;28;20034;-80
2023/03/25 07:29:59;;;;;;;18.60;4.43;;;;;;;9.30;100.00;100084.63;10373750;28;20034;-81
2023/03/25 07:34:59;;;;;;;18.95;8.10;;;;;;;9.34;100.00;100079.66;10379546;28;20038;-80
2023/03/25 07:40:00;;;;;;;28.52;6.85;;;;;;;9.44;100.00;100088.97;10381592;28;20038;-80
2023/03/25 07:45:00;;;;;;;19.70;8.55;;;;;;;9.47;100.00;100091.25;10380103;28;20438;-81
2023/03/25 07:50:01;;;;;;;19.05;5.50;;;;;;;9.57;100.00;100088.13;10380486;28;20057;-81
2023/03/25 07:55:01;;;;;;;19.10;4.53;;;;;;;9.57;100.00;100092.69;10380145;28;20080;-82
2023/03/25 08:00:04;;;;;;;20.33;5.88;;;;;;;9.71;100.00;100100.59;10381295;28;20076;-80
2023/03/25 08:05:05;;;;;;;19.77;6.15;;;;;;;9.62;100.00;100101.84;10395328;28;20489;-80
2023/03/25 08:10:06;;;;;;;18.20;6.10;;;;;;;9.82;100.00;100114.50;10394952;28;20048;-79
2023/03/25 08:15:07;;;;;;;30.33;6.45;;;;;;;9.96;100.00;100103.44;10395812;28;20062;-80
2023/03/25 08:20:08;;;;;;;24.85;5.15;;;;;;;10.04;100.00;100129.41;10378251;28;20081;-80
2023/03/25 08:25:09;;;;;;;17.75;6.97;;;;;;;10.44;100.00;100132.84;10382144;28;20046;-81
2023/03/25 08:30:10;;;;;;;34.00;7.18;;;;;;;10.82;100.00;100128.47;10379049;28;20038;-79
2023/03/25 08:35:11;;;;;;;27.38;5.85;;;;;;;10.91;100.00;100119.00;10388150;28;20060;-82
2023/03/25 08:40:11;;;;;;;14.95;6.40;;;;;;;11.11;100.00;100130.56;10392739;28;20037;-82
2023/03/25 08:45:14;;;;;;;27.15;8.23;;;;;;;10.73;100.00;100132.47;10385238;28;20038;-82
2023/03/25 08:50:14;;;;;;;16.67;7.15;;;;;;;10.66;100.00;100108.16;10404026;28;20045;-84
2023/03/25 08:55:15;;;;;;;21.45;7.55;;;;;;;10.65;100.00;100147.09;10385209;28;20089;-81
2023/03/25 09:00:16;;;;;;;24.55;6.75;;;;;;;10.75;100.00;100155.56;10388018;28;20061;-83
2023/03/25 09:05:17;;;;;;;36.28;9.52;;;;;;;10.93;100.00;100155.66;10386239;28;20363;-83
2023/03/25 09:10:18;;;;;;;29.63;8.75;;;;;;;10.93;100.00;100158.38;10402682;28;20042;-84
2023/03/25 09:15:18;;;;;;;23.48;6.93;;;;;;;10.86;100.00;100163.00;10386196;28;20038;-83
2023/03/25 09:20:19;;;;;;;20.67;7.03;;;;;;;10.82;100.00;100159.09;10381573;28;20193;-82
2023/03/25 09:25:20;;;;;;;23.75;8.38;;;;;;;11.07;100.00;100164.56;10409522;28;20052;-82
2023/03/25 09:30:20;;;;;;;22.13;7.50;;;;;;;11.06;100.00;100156.63;10396444;28;20034;-82
2023/03/25 09:35:21;;;;;;;21.27;8.05;;;;;;;11.30;100.00;100152.31;10388520;28;20026;-81
2023/03/25 09:40:21;;;;;;;31.10;9.20;;;;;;;11.34;100.00;100167.06;10380983;28;20515;-82
2023/03/25 09:45:35;;;;;;;23.70;7.15;;;;;;;11.46;100.00;100178.88;10397091;28;20041;-81
2023/03/25 09:50:35;;;;;;;22.27;6.30;;;;;;;12.16;100.00;100175.13;10378702;28;20087;-82
2023/03/25 09:55:41;;;;;;;33.90;6.78;;;;;;;12.30;100.00;100173.88;10378994;28;20580;-82
2023/03/25 10:00:41;;;;;;;31.45;8.18;;;;;;;11.70;100.00;100185.31;10379107;28;20125;-80
2023/03/25 10:06:05;;;;;;;24.88;7.90;;;;;;;11.72;100.00;100174.25;10394917;28;20041;-81
2023/03/25 10:11:45;;;;;;;15.95;6.20;;;;;;;11.54;100.00;100166.91;10397388;28;20369;-81
2023/03/25 10:17:18;;;;;;;32.17;10.25;;;;;;;12.16;100.00;100192.22;10355859;28;20076;-82
2023/03/25 10:22:28;;;;;;;27.55;7.68;;;;;;;12.09;100.00;100213.16;10374856;28;20045;-82
2023/03/25 10:27:40;;;;;;;29.33;9.10;;;;;;;11.66;100.00;100196.84;10373973;28;20393;-81
2023/03/25 10:32:43;;;;;;;26.17;8.82;;;;;;;11.77;100.00;100205.09;10389940;28;20378;-81
2023/03/25 10:37:43;;;;;;;25.50;6.22;;;;;;;11.88;100.00;100216.31;10375152;28;20037;-81
2023/03/25 10:43:22;;;;;;;27.73;7.30;;;;;;;12.70;100.00;100203.25;10375098;28;20129;-82
2023/03/25 10:48:29;;;;;;;16.52;5.72;;;;;;;12.72;100.00;100221.00;10363788;28;20045;-81
2023/03/25 10:53:29;;;;;;;28.98;6.35;;;;;;;12.85;100.00;100209.13;10387346;28;20044;-85
2023/03/25 10:58:30;;;;;;;24.73;7.32;;;;;;;12.47;100.00;100228.41;10389974;28;20039;-82
2023/03/25 11:03:33;;;;;;;27.38;7.60;;;;;;;12.81;100.00;100216.09;10389935;28;20037;-83
2023/03/25 11:08:34;;;;;;;31.63;7.50;;;;;;;13.53;100.00;100232.47;10392680;28;20445;-83
2023/03/25 11:13:35;;;;;;;29.75;7.10;;;;;;;12.88;100.00;100240.47;10398111;28;20069;-83
2023/03/25 11:18:37;;;;;;;23.63;7.07;;;;;;;13.26;100.00;100232.84;10382289;28;20155;-82
2023/03/25 11:23:48;;;;;;;27.25;8.32;;;;;;;13.23;100.00;100238.72;10367431;28;20054;-82
2023/03/25 11:29:10;;;;;;;18.17;6.25;;;;;;;14.53;100.00;100244.34;10365058;28;20034;-83
2023/03/25 11:34:19;;;;;;;21.33;7.00;;;;;;;14.57;100.00;100232.72;10389409;28;20048;-83
2023/03/25 11:39:33;;;;;;;15.63;6.68;;;;;;;14.28;99.79;100258.19;10365087;28;20037;-83
2023/03/25 11:44:34;;;;;;;24.52;7.30;;;;;;;13.49;100.00;100236.69;10398962;28;20061;-82
2023/03/25 11:49:39;;;;;;;22.92;5.88;;;;;;;13.22;100.00;100268.88;10387899;28;20366;-82
2023/03/25 11:54:40;;;;;;;27.15;6.43;;;;;;;13.72;100.00;100266.69;10393393;28;20038;-82
2023/03/25 11:59:44;;;;;;;12.95;6.60;;;;;;;14.79;98.91;100243.81;10386607;28;20143;-82
2023/03/25 12:05:00;;;;;;;30.90;5.65;;;;;;;15.01;98.78;100254.06;10395825;28;20034;-81
2023/03/25 12:10:04;;;;;;;13.93;5.80;;;;;;;15.44;96.23;100248.03;10382077;28;20080;-80
2023/03/25 12:15:32;;;;;;;12.75;6.45;;;;;;;15.37;93.64;100258.28;10381126;28;20037;-81
2023/03/25 12:20:57;;;;;;;21.60;6.60;;;;;;;15.47;97.68;100254.91;10378523;28;20084;-82
2023/03/25 12:26:52;;;;;;;26.88;8.88;;;;;;;15.97;94.76;100265.06;10395646;28;20022;-81
2023/03/25 12:32:17;;;;;;;31.80;7.05;;;;;;;15.42;94.99;100261.09;10318680;28;20030;-80
2023/03/25 12:37:55;;;;;;;17.08;7.28;;;;;;;14.22;100.00;100267.31;10374100;28;20041;-81
2023/03/25 12:43:31;;;;;;;11.90;5.22;;;;;;;13.18;100.00;100273.13;10387232;28;20083;-79
2023/03/25 12:49:05;;;;;;;27.25;6.70;;;;;;;13.18;100.00;100279.38;10397694;28;20124;-80
2023/03/25 12:54:20;;;;;;;28.75;6.68;;;;;;;14.16;100.00;100278.06;10386909;28;20060;-79
2023/03/25 12:59:20;;;;;;;15.50;6.45;;;;;;;13.80;100.00;100278.28;10397141;28;20425;-82
2023/03/25 13:04:47;;;;;;;32.43;7.50;;;;;;;13.13;100.00;100292.00;10381809;28;20033;-80
2023/03/25 13:10:14;;;;;;;20.55;6.53;;;;;;;12.64;100.00;100300.09;10384886;28;20322;-81
2023/03/25 13:15:19;;;;;;;18.92;5.40;;;;;;;12.41;100.00;100310.78;10378943;28;20105;-79
2023/03/25 13:20:20;;;;;;;42.92;8.43;;;;;;;11.70;100.00;100314.69;10378275;28;20054;-80
2023/03/25 13:25:25;;;;;;;30.40;7.85;;;;;;;10.77;100.00;100328.69;10394476;28;20469;-80
2023/03/25 13:30:37;;;;;;;12.77;6.07;;;;;;;10.50;100.00;100319.78;10375623;28;20034;-80
2023/03/25 13:35:47;;;;;;;23.15;7.18;;;;;;;11.44;100.00;100307.56;10359612;28;20033;-80
2023/03/25 13:40:53;;;;;;;22.25;8.02;;;;;;;11.28;100.00;100327.88;10380937;28;20105;-79
2023/03/25 13:46:17;;;;;;;15.55;5.78;;;;;;;12.00;100.00;100307.59;10391123;28;20034;-79
2023/03/25 13:51:18;;;;;;;22.33;6.43;;;;;;;12.39;100.00;100299.31;10401695;28;20461;-82
2023/03/25 13:56:45;;;;;;;22.92;5.90;;;;;;;12.99;100.00;100291.34;10381840;28;20061;-80
2023/03/25 14:02:20;;;;;;;26.88;5.95;;;;;;;13.12;100.00;100307.47;10383974;28;20087;-77
2023/03/25 14:08:03;;;;;;;31.80;6.40;;;;;;;13.66;100.00;100316.59;10386032;28;20033;-78
2023/03/25 14:13:05;;;;;;;32.10;8.43;;;;;;;14.00;100.00;100306.00;10381504;28;20481;-81
2023/03/25 14:18:12;;;;;;;11.32;4.43;;;;;;;13.70;100.00;100333.28;10397973;28;20038;-79
2023/03/25 14:23:19;;;;;;;19.17;5.95;;;;;;;13.61;100.00;100332.75;10396685;28;20060;-81
2023/03/25 14:28:42;;;;;;;19.77;6.68;;;;;;;13.60;100.00;100344.72;10374781;28;20426;-80
2023/03/25 14:34:01;;;;;;;12.60;5.43;;;;;;;12.83;100.00;100359.84;10375272;28;20033;-80
2023/03/25 14:39:03;;;;;;;13.43;6.43;;;;;;;12.56;100.00;100365.56;10374313;28;20036;-80
2023/03/25 14:44:31;;;;;;;24.05;6.72;;;;;;;12.54;100.00;100370.41;10374766;28;20132;-81
2023/03/25 14:50:00;;;;;;;29.60;7.20;;;;;;;12.33;100.00;100375.19;10372585;28;20049;-78
2023/03/25 14:55:04;;;;;;;26.13;6.72;;;;;;;11.83;100.00;100388.66;10374821;28;20033;-76
2023/03/25 15:00:16;;;;;;;24.58;7.47;;;;;;;11.50;100.00;100397.00;10375401;28;20041;-82
2023/03/25 15:05:18;;;;;;;15.13;6.35;;;;;;;11.25;100.00;100388.75;10392613;28;20064;-81
2023/03/25 15:10:48;;;;;;;24.33;8.55;;;;;;;11.20;100.00;100391.28;10378031;28;20029;-81
2023/03/25 15:15:50;;;;;;;18.05;5.65;;;;;;;11.08;100.00;100409.25;10378108;28;20488;-80
2023/03/25 15:20:51;;;;;;;20.45;7.80;;;;;;;11.00;100.00;100393.22;10375251;28;20050;-80
2023/03/25 15:25:53;;;;;;;29.35;8.75;;;;;;;11.14;100.00;100408.41;10383027;28;20544;-79
2023/03/25 15:31:00;;;;;;;33.28;9.15;;;;;;;11.49;100.00;100408.06;10393032;28;20030;-82
2023/03/25 15:36:29;;;;;;;20.70;7.35;;;;;;;11.60;100.00;100412.78;10396647;28;20116;-80
2023/03/25 15:41:55;;;;;;;19.80;7.68;;;;;;;11.48;100.00;100412.63;10373517;28;20038;-80
2023/03/25 15:47:10;;;;;;;20.83;6.57;;;;;;;11.36;100.00;100415.19;10375455;28;20400;-81
2023/03/25 15:52:41;;;;;;;33.95;6.93;;;;;;;11.46;100.00;100422.06;10373668;28;20056;-80
2023/03/25 15:58:12;;;;;;;42.55;7.97;;;;;;;11.45;100.00;100432.03;10381644;28;20128;-81
2023/03/25 16:03:14;;;;;;;35.13;7.82;;;;;;;11.33;100.00;100422.94;10382352;28;20519;-80
2023/03/25 16:08:17;;;;;;;34.05;7.88;;;;;;;11.40;100.00;100429.97;10381507;28;20466;-80
2023/03/25 16:13:22;;;;;;;22.90;6.25;;;;;;;11.27;100.00;100438.16;10365486;28;20478;-81
2023/03/25 16:18:22;;;;;;;27.10;8.20;;;;;;;11.21;100.00;100452.56;10383980;28;20038;-80
2023/03/25 16:23:23;;;;;;;29.15;7.30;;;;;;;11.15;100.00;100459.66;10383520;28;20107;-81
2023/03/25 16:28:30;;;;;;;20.52;8.77;;;;;;;11.00;100.00;100450.94;10381612;28;20034;-81
2023/03/25 16:33:36;;;;;;;33.20;8.50;;;;;;;10.91;100.00;100458.47;10397337;28;20461;-80
2023/03/25 16:38:37;;;;;;;36.40;8.00;;;;;;;10.74;100.00;100468.06;10380844;28;20382;-80
2023/03/25 16:43:37;;;;;;;29.08;7.80;;;;;;;10.60;100.00;100474.53;10396749;28;20278;-81
2023/03/25 16:48:39;;;;;;;21.67;7.82;;;;;;;10.54;100.00;100505.16;10397632;28;20029;-81
2023/03/25 16:53:40;;;;;;;28.65;8.40;;;;;;;10.46;100.00;100496.19;10397488;28;20033;-81
2023/03/25 16:59:05;;;;;;;15.60;4.68;;;;;;;10.47;100.00;100510.56;10364890;28;20056;-81
2023/03/25 17:04:18;;;;;;;24.80;6.28;;;;;;;10.29;100.00;100510.31;10395401;28;20044;-81
2023/03/25 17:09:20;;;;;;;28.30;6.90;;;;;;;10.31;100.00;100508.25;10379349;28;20408;-81
2023/03/25 17:14:21;;;;;;;18.27;6.53;;;;;;;10.25;100.00;100517.97;10394239;28;20034;-81
2023/03/25 17:19:21;;;;;;;23.88;7.88;;;;;;;10.09;100.00;100519.19;10394179;28;20104;-80
2023/03/25 17:24:23;;;;;;;53.65;11.38;;;;;;;10.09;100.00;100527.28;10393031;28;20038;-80
2023/03/25 17:29:23;;;;;;;29.92;9.40;;;;;;;10.07;100.00;100537.47;10377024;28;20084;-81
2023/03/25 17:34:25;;;;;;;32.60;8.93;;;;;;;10.10;100.00;100530.84;10395085;28;20112;-80
2023/03/25 17:39:27;;;;;;;47.42;10.02;;;;;;;10.02;100.00;100551.63;10383416;28;20063;-81
2023/03/25 17:44:30;;;;;;;48.58;10.05;;;;;;;10.03;100.00;100563.28;10378478;28;20046;-80
2023/03/25 17:49:31;;;;;;;20.75;5.80;;;;;;;9.90;100.00;100542.41;10378647;28;20498;-80
2023/03/25 17:54:31;;;;;;;26.63;7.63;;;;;;;9.82;100.00;100550.69;10378262;28;20033;-80
2023/03/25 17:59:32;;;;;;;29.17;7.75;;;;;;;9.71;100.00;100564.78;10376421;28;20470;-80
2023/03/25 18:04:32;;;;;;;32.50;9.43;;;;;;;9.63;100.00;100575.75;10391464;28;20040;-81
2023/03/25 18:09:33;;;;;;;35.63;9.63;;;;;;;9.60;100.00;100578.84;10375250;28;20432;-80
2023/03/25 18:14:33;;;;;;;29.33;9.75;;;;;;;9.48;100.00;100581.31;10374700;28;20034;-80
2023/03/25 18:19:34;;;;;;;32.08;7.53;;;;;;;9.34;100.00;100595.75;10376507;28;20137;-80
2023/03/25 18:24:35;;;;;;;41.97;9.40;;;;;;;9.29;100.00;100609.84;10376154;28;20438;-81
2023/03/25 18:29:37;;;;;;;23.42;8.95;;;;;;;9.41;100.00;100615.53;10374847;28;20036;-81
2023/03/25 18:34:37;;;;;;;29.75;7.03;;;;;;;9.48;100.00;100611.88;10374590;28;20513;-80
2023/03/25 18:39:37;;;;;;;37.83;8.90;;;;;;;9.49;100.00;100623.50;10375477;28;20060;-80
2023/03/25 18:44:38;;;;;;;27.48;8.82;;;;;;;9.49;100.00;100621.63;10372905;28;20125;-81
2023/03/25 18:49:38;;;;;;;27.08;7.28;;;;;;;9.47;100.00;100622.84;10374674;28;20034;-81
2023/03/25 18:54:40;;;;;;;26.27;7.05;;;;;;;9.47;100.00;100631.78;10375284;28;20042;-81
2023/03/25 18:59:40;;;;;;;22.15;6.03;;;;;;;9.51;100.00;100629.56;10389700;28;20355;-81
2023/03/25 19:04:40;;;;;;;6.85;3.28;;;;;;;9.64;100.00;100634.22;10373343;28;20124;-81
2023/03/25 19:09:41;;;;;;;21.85;6.18;;;;;;;9.66;100.00;100624.84;10375887;28;20447;-81
2023/03/25 19:14:41;;;;;;;18.73;5.45;;;;;;;9.67;100.00;100629.25;10374086;28;20062;-80
2023/03/25 19:19:42;;;;;;;11.85;5.32;;;;;;;9.54;100.00;100627.28;10390720;28;20089;-81
2023/03/25 19:24:42;;;;;;;21.85;4.53;;;;;;;9.26;100.00;100623.75;10389953;28;20034;-81
2023/03/25 19:29:43;;;;;;;11.90;4.13;;;;;;;9.12;100.00;100617.38;10378087;28;20026;-81
2023/03/25 19:34:45;;;;;;;14.10;4.70;;;;;;;8.92;100.00;100628.03;10383729;28;20077;-81
2023/03/25 19:39:45;;;;;;;14.40;3.88;;;;;;;8.71;100.00;100622.59;10382518;28;20048;-81
2023/03/25 19:44:45;;;;;;;15.68;5.00;;;;;;;8.56;100.00;100620.81;10382715;28;20573;-81
2023/03/25 19:49:46;;;;;;;8.95;4.55;;;;;;;8.51;100.00;100630.50;10384847;28;20045;-81
2023/03/25 19:54:46;;;;;;;17.90;4.70;;;;;;;8.68;100.00;100636.50;10389583;28;20069;-81
2023/03/25 19:59:47;;;;;;;12.80;4.10;;;;;;;8.90;100.00;100643.56;10384050;28;20432;-81
2023/03/25 20:04:47;;;;;;;14.73;4.18;;;;;;;9.03;100.00;100640.16;10381851;28;20061;-80
2023/03/25 20:09:48;;;;;;;18.80;6.35;;;;;;;9.12;100.00;100638.16;10381953;28;20034;-80
2023/03/25 20:14:48;;;;;;;27.60;5.43;;;;;;;9.17;100.00;100624.94;10396334;28;20049;-81
2023/03/25 20:19:48;;;;;;;27.45;5.63;;;;;;;9.00;100.00;100636.00;10381301;28;20513;-81
2023/03/25 20:24:49;;;;;;;24.73;5.28;;;;;;;8.70;100.00;100635.28;10381046;28;20045;-81
2023/03/25 20:29:49;;;;;;;18.75;4.40;;;;;;;8.45;100.00;100626.69;10363932;28;20084;-81
2023/03/25 20:34:50;;;;;;;11.43;4.68;;;;;;;8.31;100.00;100649.13;10363207;28;20127;-81
2023/03/25 20:39:50;;;;;;;12.85;3.75;;;;;;;8.39;100.00;100643.66;10379933;28;20069;-81
2023/03/25 20:44:51;;;;;;;11.85;3.28;;;;;;;8.34;100.00;100649.59;10380669;28;20089;-81
2023/03/25 20:49:52;;;;;;;11.35;3.20;;;;;;;8.18;100.00;100648.97;10383428;28;20080;-81
2023/03/25 20:54:52;;;;;;;9.00;2.55;;;;;;;7.97;100.00;100653.25;10382313;28;20058;-81
2023/03/25 20:59:53;;;;;;;17.00;4.30;;;;;;;7.86;100.00;100654.56;10377920;28;20042;-81
2023/03/25 21:04:55;;;;;;;12.57;3.47;;;;;;;7.78;100.00;100649.25;10378740;28;20485;-81
2023/03/25 21:09:56;;;;;;;18.58;4.50;;;;;;;7.75;100.00;100643.41;10379329;28;20048;-81
2023/03/25 21:14:57;;;;;;;8.35;3.78;;;;;;;7.67;100.00;100647.84;10395576;28;20121;-81
2023/03/25 21:19:58;;;;;;;12.32;4.63;;;;;;;7.59;100.00;100661.41;10395277;28;20065;-81
2023/03/25 21:24:58;;;;;;;16.00;5.32;;;;;;;7.57;100.00;100662.63;10379451;28;20085;-81
2023/03/25 21:29:59;;;;;;;16.80;4.40;;;;;;;7.67;100.00;100668.59;10382784;28;20057;-81
2023/03/25 21:34:59;;;;;;;10.07;4.38;;;;;;;7.96;100.00;100661.53;10381468;28;20041;-82
2023/03/25 21:39:59;;;;;;;11.07;4.07;;;;;;;8.16;100.00;100674.25;10380460;28;20065;-82
2023/03/25 21:45:01;;;;;;;11.93;3.13;;;;;;;8.28;100.00;100658.44;10378999;28;20069;-82
2023/03/25 21:50:04;;;;;;;10.65;3.47;;;;;;;8.26;100.00;100665.88;10377851;28;20029;-80
2023/03/25 21:55:05;;;;;;;12.18;3.42;;;;;;;8.18;100.00;100670.56;10359022;28;20390;-81
2023/03/25 22:00:07;;;;;;;12.25;3.90;;;;;;;8.19;100.00;100656.88;10391813;28;20548;-82
2023/03/25 22:05:09;;;;;;;4.18;2.90;;;;;;;8.13;100.00;100669.22;10380273;28;20038;-81
2023/03/25 22:10:10;;;;;;;5.78;3.25;;;;;;;8.10;100.00;100664.25;10391590;28;20029;-82
2023/03/25 22:15:10;;;;;;;7.90;2.42;;;;;;;8.14;100.00;100670.94;10377826;28;20045;-82
2023/03/25 22:20:10;;;;;;;10.18;3.42;;;;;;;8.31;100.00;100665.31;10393245;28;20054;-81
2023/03/25 22:25:11;;;;;;;8.82;3.30;;;;;;;8.45;100.00;100669.03;10377112;28;20041;-81
2023/03/25 22:30:12;;;;;;;15.95;3.45;;;;;;;8.58;100.00;100674.59;10394920;28;20030;-82
2023/03/25 22:35:13;;;;;;;9.07;3.15;;;;;;;8.65;100.00;100680.91;10360511;28;20049;-82
2023/03/25 22:40:13;;;;;;;12.23;3.67;;;;;;;8.70;100.00;100680.34;10392572;28;20076;-80
2023/03/25 22:45:13;;;;;;;14.35;3.60;;;;;;;8.69;100.00;100673.28;10377400;28;20041;-81
2023/03/25 22:50:14;;;;;;;20.25;4.65;;;;;;;8.70;100.00;100666.84;10376553;28;20610;-80
2023/03/25 22:55:15;;;;;;;10.75;3.85;;;;;;;8.73;100.00;100664.59;10376510;28;20046;-81
2023/03/25 23:00:16;;;;;;;8.13;3.80;;;;;;;8.72;100.00;100662.94;10390403;28;20038;-80
2023/03/25 23:05:18;;;;;;;11.45;3.22;;;;;;;8.72;100.00;100662.09;10357883;28;20065;-80